Orlando, Florida
Traffic Map
Current Weather Conditions
Orlando, Florida
Overcast Light Rain
Overcast
78°
Feels Like: 81°
Wind Chill: 78° Ceiling: 2700
Heat Index: 81° Visibility: 7mi
Dew Point: 74° Wind: 7mph
Humidity: 87% Direction: 40° (NE)
Pressure: 29.92in Gusts: 0mph
Raw Report DataKORL 012053Z 04006KT 7SM -RA OVC027 26/23 A2992 RMK AO2 RAB18 SLP135 P0010 60010 T02560233 55000
Traffic Incident Summary
Active as of:
Severity:
Category:
InformationThere was an issue retrieving the traffic information for this location. Please try a different location or try again shortly.
Advertisements
Track Severe Weather on mobile